sensor_id;sensor_type;location;lat;lon;timestamp;P1;durP1;ratioP1;P2;durP2;ratioP2
74293;SDS011;64044;59.904;10.738;2023-04-03T00:01:29;5.82;;;1.77;;
74293;SDS011;64044;59.904;10.738;2023-04-03T00:03:54;3.88;;;1.63;;
74293;SDS011;64044;59.904;10.738;2023-04-03T00:06:20;6.30;;;2.15;;
74293;SDS011;64044;59.904;10.738;2023-04-03T00:08:47;9.23;;;2.40;;
74293;SDS011;64044;59.904;10.738;2023-04-03T00:11:13;7.28;;;1.73;;
74293;SDS011;64044;59.904;10.738;2023-04-03T00:13:40;5.20;;;2.38;;
74293;SDS011;64044;59.904;10.738;2023-04-03T00:16:06;9.82;;;1.80;;
74293;SDS011;64044;59.904;10.738;2023-04-03T00:18:33;4.28;;;2.00;;
74293;SDS011;64044;59.904;10.738;2023-04-03T00:20:58;6.03;;;1.92;;
74293;SDS011;64044;59.904;10.738;2023-04-03T00:23:24;3.50;;;1.73;;
74293;SDS011;64044;59.904;10.738;2023-04-03T00:25:50;6.50;;;1.88;;
74293;SDS011;64044;59.904;10.738;2023-04-03T00:28:16;9.90;;;2.05;;
74293;SDS011;64044;59.904;10.738;2023-04-03T00:30:42;10.10;;;2.30;;
74293;SDS011;64044;59.904;10.738;2023-04-03T00:33:10;5.03;;;1.70;;
74293;SDS011;64044;59.904;10.738;2023-04-03T00:35:38;9.73;;;2.60;;
74293;SDS011;64044;59.904;10.738;2023-04-03T00:38:03;5.80;;;2.03;;
74293;SDS011;64044;59.904;10.738;2023-04-03T00:40:33;4.40;;;2.00;;
74293;SDS011;64044;59.904;10.738;2023-04-03T00:47:57;10.65;;;2.97;;
74293;SDS011;64044;59.904;10.738;2023-04-03T00:50:25;4.55;;;1.60;;
74293;SDS011;64044;59.904;10.738;2023-04-03T00:52:53;13.15;;;2.00;;
74293;SDS011;64044;59.904;10.738;2023-04-03T00:55:20;5.93;;;1.90;;
74293;SDS011;64044;59.904;10.738;2023-04-03T00:57:46;7.03;;;1.50;;
74293;SDS011;64044;59.904;10.738;2023-04-03T01:00:14;5.80;;;1.83;;
74293;SDS011;64044;59.904;10.738;2023-04-03T01:02:43;5.80;;;1.85;;
74293;SDS011;64044;59.904;10.738;2023-04-03T01:05:10;4.72;;;1.70;;
74293;SDS011;64044;59.904;10.738;2023-04-03T01:07:37;3.08;;;1.85;;
74293;SDS011;64044;59.904;10.738;2023-04-03T01:10:05;2.90;;;1.42;;
74293;SDS011;64044;59.904;10.738;2023-04-03T01:12:37;3.38;;;1.60;;
74293;SDS011;64044;59.904;10.738;2023-04-03T01:15:05;4.90;;;1.63;;
74293;SDS011;64044;59.904;10.738;2023-04-03T01:22:54;7.68;;;1.63;;
74293;SDS011;64044;59.904;10.738;2023-04-03T01:28:30;4.35;;;1.70;;
74293;SDS011;64044;59.904;10.738;2023-04-03T01:33:55;5.78;;;1.70;;
74293;SDS011;64044;59.904;10.738;2023-04-03T01:36:22;5.07;;;1.60;;
74293;SDS011;64044;59.904;10.738;2023-04-03T01:38:50;7.55;;;1.80;;
74293;SDS011;64044;59.904;10.738;2023-04-03T01:41:17;3.28;;;1.58;;
74293;SDS011;64044;59.904;10.738;2023-04-03T01:43:43;6.45;;;1.80;;
74293;SDS011;64044;59.904;10.738;2023-04-03T01:46:08;8.15;;;1.80;;
74293;SDS011;64044;59.904;10.738;2023-04-03T01:48:34;7.50;;;1.50;;
74293;SDS011;64044;59.904;10.738;2023-04-03T01:51:00;3.75;;;1.80;;
74293;SDS011;64044;59.904;10.738;2023-04-03T01:53:26;9.70;;;2.30;;
74293;SDS011;64044;59.904;10.738;2023-04-03T01:55:51;9.45;;;1.67;;
74293;SDS011;64044;59.904;10.738;2023-04-03T01:58:17;4.78;;;1.55;;
74293;SDS011;64044;59.904;10.738;2023-04-03T02:00:43;8.82;;;1.60;;
74293;SDS011;64044;59.904;10.738;2023-04-03T02:03:09;2.22;;;1.60;;
74293;SDS011;64044;59.904;10.738;2023-04-03T02:05:34;4.93;;;1.40;;
74293;SDS011;64044;59.904;10.738;2023-04-03T02:08:00;3.75;;;1.50;;
74293;SDS011;64044;59.904;10.738;2023-04-03T02:10:26;3.30;;;1.60;;
74293;SDS011;64044;59.904;10.738;2023-04-03T02:12:52;7.38;;;1.80;;
74293;SDS011;64044;59.904;10.738;2023-04-03T02:15:18;5.43;;;1.50;;
74293;SDS011;64044;59.904;10.738;2023-04-03T02:17:43;3.38;;;1.30;;
74293;SDS011;64044;59.904;10.738;2023-04-03T02:20:09;4.03;;;1.48;;
74293;SDS011;64044;59.904;10.738;2023-04-03T02:22:35;4.63;;;1.70;;
74293;SDS011;64044;59.904;10.738;2023-04-03T02:25:01;4.57;;;1.45;;
74293;SDS011;64044;59.904;10.738;2023-04-03T02:27:27;8.13;;;1.40;;
74293;SDS011;64044;59.904;10.738;2023-04-03T02:29:53;4.57;;;1.60;;
74293;SDS011;64044;59.904;10.738;2023-04-03T02:32:19;5.50;;;1.60;;
74293;SDS011;64044;59.904;10.738;2023-04-03T02:34:44;2.45;;;1.25;;
74293;SDS011;64044;59.904;10.738;2023-04-03T02:37:10;4.13;;;1.27;;
74293;SDS011;64044;59.904;10.738;2023-04-03T02:39:36;4.55;;;1.70;;
74293;SDS011;64044;59.904;10.738;2023-04-03T02:42:02;4.88;;;1.40;;
74293;SDS011;64044;59.904;10.738;2023-04-03T02:44:28;2.38;;;1.30;;
74293;SDS011;64044;59.904;10.738;2023-04-03T02:46:53;5.75;;;1.52;;
74293;SDS011;64044;59.904;10.738;2023-04-03T02:49:19;4.15;;;1.30;;
74293;SDS011;64044;59.904;10.738;2023-04-03T02:51:45;6.25;;;1.63;;
74293;SDS011;64044;59.904;10.738;2023-04-03T02:54:11;4.72;;;1.48;;
74293;SDS011;64044;59.904;10.738;2023-04-03T02:56:36;5.85;;;1.52;;
74293;SDS011;64044;59.904;10.738;2023-04-03T02:59:02;6.00;;;1.63;;
74293;SDS011;64044;59.904;10.738;2023-04-03T03:01:28;5.50;;;2.33;;
74293;SDS011;64044;59.904;10.738;2023-04-03T03:03:56;5.95;;;1.55;;
74293;SDS011;64044;59.904;10.738;2023-04-03T03:06:23;2.58;;;1.40;;
74293;SDS011;64044;59.904;10.738;2023-04-03T03:08:48;5.13;;;1.70;;
74293;SDS011;64044;59.904;10.738;2023-04-03T03:11:14;5.03;;;1.63;;
74293;SDS011;64044;59.904;10.738;2023-04-03T03:13:40;2.88;;;1.20;;
74293;SDS011;64044;59.904;10.738;2023-04-03T03:16:06;4.00;;;1.50;;
74293;SDS011;64044;59.904;10.738;2023-04-03T03:18:33;5.90;;;1.48;;
74293;SDS011;64044;59.904;10.738;2023-04-03T03:20:59;9.43;;;1.90;;
74293;SDS011;64044;59.904;10.738;2023-04-03T03:23:27;3.00;;;1.50;;
74293;SDS011;64044;59.904;10.738;2023-04-03T03:26:04;3.60;;;1.40;;
74293;SDS011;64044;59.904;10.738;2023-04-03T03:28:32;4.63;;;1.35;;
74293;SDS011;64044;59.904;10.738;2023-04-03T03:30:58;3.50;;;1.33;;
74293;SDS011;64044;59.904;10.738;2023-04-03T03:33:24;5.15;;;2.05;;
74293;SDS011;64044;59.904;10.738;2023-04-03T03:35:51;5.10;;;1.30;;
74293;SDS011;64044;59.904;10.738;2023-04-03T03:38:18;4.22;;;1.63;;
74293;SDS011;64044;59.904;10.738;2023-04-03T03:40:44;2.83;;;1.45;;
74293;SDS011;64044;59.904;10.738;2023-04-03T03:43:09;6.35;;;1.45;;
74293;SDS011;64044;59.904;10.738;2023-04-03T03:45:35;7.95;;;1.70;;
74293;SDS011;64044;59.904;10.738;2023-04-03T03:48:01;2.55;;;1.20;;
74293;SDS011;64044;59.904;10.738;2023-04-03T03:50:27;8.38;;;1.70;;
74293;SDS011;64044;59.904;10.738;2023-04-03T03:52:53;3.75;;;1.50;;
74293;SDS011;64044;59.904;10.738;2023-04-03T03:55:19;4.43;;;1.92;;
74293;SDS011;64044;59.904;10.738;2023-04-03T03:57:44;4.53;;;1.23;;
74293;SDS011;64044;59.904;10.738;2023-04-03T04:00:10;3.00;;;1.65;;
74293;SDS011;64044;59.904;10.738;2023-04-03T04:02:36;3.67;;;1.25;;
74293;SDS011;64044;59.904;10.738;2023-04-03T04:05:02;5.68;;;1.70;;
74293;SDS011;64044;59.904;10.738;2023-04-03T04:07:28;14.82;;;2.10;;
74293;SDS011;64044;59.904;10.738;2023-04-03T04:09:54;8.48;;;1.75;;
74293;SDS011;64044;59.904;10.738;2023-04-03T04:12:20;4.53;;;1.40;;
74293;SDS011;64044;59.904;10.738;2023-04-03T04:14:45;2.30;;;1.23;;
74293;SDS011;64044;59.904;10.738;2023-04-03T04:17:12;5.88;;;1.40;;
74293;SDS011;64044;59.904;10.738;2023-04-03T04:19:39;3.42;;;1.45;;
74293;SDS011;64044;59.904;10.738;2023-04-03T04:22:05;6.55;;;1.40;;
74293;SDS011;64044;59.904;10.738;2023-04-03T04:24:30;5.20;;;1.90;;
74293;SDS011;64044;59.904;10.738;2023-04-03T04:26:56;3.97;;;1.58;;
74293;SDS011;64044;59.904;10.738;2023-04-03T04:29:22;4.50;;;1.27;;
74293;SDS011;64044;59.904;10.738;2023-04-03T04:31:48;5.25;;;1.70;;
74293;SDS011;64044;59.904;10.738;2023-04-03T04:34:14;3.55;;;1.73;;
74293;SDS011;64044;59.904;10.738;2023-04-03T04:36:39;5.50;;;2.05;;
74293;SDS011;64044;59.904;10.738;2023-04-03T04:39:05;6.97;;;1.70;;
74293;SDS011;64044;59.904;10.738;2023-04-03T04:41:31;5.80;;;1.75;;
74293;SDS011;64044;59.904;10.738;2023-04-03T04:43:57;10.35;;;2.00;;
74293;SDS011;64044;59.904;10.738;2023-04-03T04:46:23;4.28;;;1.85;;
74293;SDS011;64044;59.904;10.738;2023-04-03T04:48:48;5.43;;;1.45;;
74293;SDS011;64044;59.904;10.738;2023-04-03T04:51:15;5.80;;;1.95;;
74293;SDS011;64044;59.904;10.738;2023-04-03T04:53:41;5.93;;;1.75;;
74293;SDS011;64044;59.904;10.738;2023-04-03T04:56:07;6.25;;;2.20;;
74293;SDS011;64044;59.904;10.738;2023-04-03T04:58:33;5.32;;;1.92;;
74293;SDS011;64044;59.904;10.738;2023-04-03T05:01:00;12.93;;;3.50;;
74293;SDS011;64044;59.904;10.738;2023-04-03T05:03:31;6.45;;;2.38;;
74293;SDS011;64044;59.904;10.738;2023-04-03T05:05:57;8.73;;;2.63;;
74293;SDS011;64044;59.904;10.738;2023-04-03T05:08:23;15.57;;;2.17;;
74293;SDS011;64044;59.904;10.738;2023-04-03T05:10:49;3.55;;;1.70;;
74293;SDS011;64044;59.904;10.738;2023-04-03T05:13:15;4.25;;;1.60;;
74293;SDS011;64044;59.904;10.738;2023-04-03T05:15:41;8.55;;;1.75;;
74293;SDS011;64044;59.904;10.738;2023-04-03T05:18:06;12.25;;;2.00;;
74293;SDS011;64044;59.904;10.738;2023-04-03T05:20:32;3.83;;;1.38;;
74293;SDS011;64044;59.904;10.738;2023-04-03T05:22:58;7.20;;;1.80;;
74293;SDS011;64044;59.904;10.738;2023-04-03T05:25:24;4.35;;;1.38;;
74293;SDS011;64044;59.904;10.738;2023-04-03T05:27:51;10.18;;;1.67;;
74293;SDS011;64044;59.904;10.738;2023-04-03T05:30:16;8.70;;;1.58;;
74293;SDS011;64044;59.904;10.738;2023-04-03T05:32:42;3.92;;;1.38;;
74293;SDS011;64044;59.904;10.738;2023-04-03T05:35:08;4.50;;;1.38;;
74293;SDS011;64044;59.904;10.738;2023-04-03T05:37:35;8.07;;;2.00;;
74293;SDS011;64044;59.904;10.738;2023-04-03T05:40:02;10.23;;;1.65;;
74293;SDS011;64044;59.904;10.738;2023-04-03T05:42:28;9.15;;;1.88;;
74293;SDS011;64044;59.904;10.738;2023-04-03T05:44:54;12.15;;;1.65;;
74293;SDS011;64044;59.904;10.738;2023-04-03T05:47:20;8.40;;;2.33;;
74293;SDS011;64044;59.904;10.738;2023-04-03T05:49:46;6.68;;;1.67;;
74293;SDS011;64044;59.904;10.738;2023-04-03T05:55:04;4.65;;;1.60;;
74293;SDS011;64044;59.904;10.738;2023-04-03T05:57:31;5.78;;;1.40;;
74293;SDS011;64044;59.904;10.738;2023-04-03T05:59:56;7.28;;;1.42;;
74293;SDS011;64044;59.904;10.738;2023-04-03T06:02:22;12.38;;;2.15;;
74293;SDS011;64044;59.904;10.738;2023-04-03T06:04:49;12.65;;;2.03;;
74293;SDS011;64044;59.904;10.738;2023-04-03T06:07:19;9.65;;;2.08;;
74293;SDS011;64044;59.904;10.738;2023-04-03T06:09:48;5.00;;;1.40;;
74293;SDS011;64044;59.904;10.738;2023-04-03T06:12:15;7.95;;;1.70;;
74293;SDS011;64044;59.904;10.738;2023-04-03T06:14:41;9.02;;;1.88;;
74293;SDS011;64044;59.904;10.738;2023-04-03T06:17:07;8.60;;;1.42;;
74293;SDS011;64044;59.904;10.738;2023-04-03T06:19:34;5.78;;;1.42;;
74293;SDS011;64044;59.904;10.738;2023-04-03T06:22:00;7.70;;;1.42;;
74293;SDS011;64044;59.904;10.738;2023-04-03T06:24:28;8.82;;;1.73;;
74293;SDS011;64044;59.904;10.738;2023-04-03T06:26:54;6.97;;;1.30;;
74293;SDS011;64044;59.904;10.738;2023-04-03T06:29:20;11.48;;;1.63;;
74293;SDS011;64044;59.904;10.738;2023-04-03T06:31:46;5.60;;;1.15;;
74293;SDS011;64044;59.904;10.738;2023-04-03T06:34:12;12.45;;;1.30;;
74293;SDS011;64044;59.904;10.738;2023-04-03T06:36:39;4.78;;;1.45;;
74293;SDS011;64044;59.904;10.738;2023-04-03T06:39:05;7.40;;;2.00;;
74293;SDS011;64044;59.904;10.738;2023-04-03T06:41:32;17.00;;;1.85;;
74293;SDS011;64044;59.904;10.738;2023-04-03T06:43:58;10.82;;;2.10;;
74293;SDS011;64044;59.904;10.738;2023-04-03T06:46:24;9.60;;;1.40;;
74293;SDS011;64044;59.904;10.738;2023-04-03T06:48:51;6.03;;;1.50;;
74293;SDS011;64044;59.904;10.738;2023-04-03T06:51:24;6.90;;;1.60;;
74293;SDS011;64044;59.904;10.738;2023-04-03T06:53:52;7.85;;;1.70;;
74293;SDS011;64044;59.904;10.738;2023-04-03T06:56:20;4.85;;;1.33;;
74293;SDS011;64044;59.904;10.738;2023-04-03T06:58:46;5.22;;;1.45;;
74293;SDS011;64044;59.904;10.738;2023-04-03T07:01:13;4.05;;;1.38;;
74293;SDS011;64044;59.904;10.738;2023-04-03T07:03:40;3.35;;;1.10;;
74293;SDS011;64044;59.904;10.738;2023-04-03T07:06:06;3.70;;;0.95;;
74293;SDS011;64044;59.904;10.738;2023-04-03T07:08:33;5.47;;;1.00;;
74293;SDS011;64044;59.904;10.738;2023-04-03T07:10:59;2.55;;;0.98;;
74293;SDS011;64044;59.904;10.738;2023-04-03T07:13:25;2.78;;;0.73;;
74293;SDS011;64044;59.904;10.738;2023-04-03T07:15:51;3.55;;;0.98;;
74293;SDS011;64044;59.904;10.738;2023-04-03T07:18:17;2.22;;;1.08;;
74293;SDS011;64044;59.904;10.738;2023-04-03T07:20:44;1.40;;;0.70;;
74293;SDS011;64044;59.904;10.738;2023-04-03T07:23:10;2.30;;;0.98;;
74293;SDS011;64044;59.904;10.738;2023-04-03T07:25:37;2.67;;;0.80;;
74293;SDS011;64044;59.904;10.738;2023-04-03T07:28:07;3.72;;;1.08;;
74293;SDS011;64044;59.904;10.738;2023-04-03T07:30:33;1.63;;;0.70;;
74293;SDS011;64044;59.904;10.738;2023-04-03T07:32:58;3.10;;;0.93;;
74293;SDS011;64044;59.904;10.738;2023-04-03T07:35:24;5.00;;;0.80;;
74293;SDS011;64044;59.904;10.738;2023-04-03T07:37:50;2.80;;;0.95;;
74293;SDS011;64044;59.904;10.738;2023-04-03T07:40:16;6.90;;;0.85;;
74293;SDS011;64044;59.904;10.738;2023-04-03T07:42:42;2.35;;;0.80;;
74293;SDS011;64044;59.904;10.738;2023-04-03T07:45:07;3.50;;;1.42;;
74293;SDS011;64044;59.904;10.738;2023-04-03T07:47:34;1.85;;;1.55;;
74293;SDS011;64044;59.904;10.738;2023-04-03T07:50:00;3.65;;;1.20;;
74293;SDS011;64044;59.904;10.738;2023-04-03T07:52:25;2.05;;;1.00;;
74293;SDS011;64044;59.904;10.738;2023-04-03T07:54:51;4.18;;;0.80;;
74293;SDS011;64044;59.904;10.738;2023-04-03T07:57:17;1.52;;;0.82;;
74293;SDS011;64044;59.904;10.738;2023-04-03T07:59:43;2.42;;;1.10;;
74293;SDS011;64044;59.904;10.738;2023-04-03T08:02:12;2.15;;;0.75;;
74293;SDS011;64044;59.904;10.738;2023-04-03T08:04:37;3.42;;;0.90;;
74293;SDS011;64044;59.904;10.738;2023-04-03T08:07:03;2.55;;;1.08;;
74293;SDS011;64044;59.904;10.738;2023-04-03T08:09:30;2.75;;;0.80;;
74293;SDS011;64044;59.904;10.738;2023-04-03T08:11:56;2.20;;;0.98;;
74293;SDS011;64044;59.904;10.738;2023-04-03T08:14:23;1.83;;;0.80;;
74293;SDS011;64044;59.904;10.738;2023-04-03T08:16:49;1.73;;;0.68;;
74293;SDS011;64044;59.904;10.738;2023-04-03T08:19:15;2.85;;;1.10;;
74293;SDS011;64044;59.904;10.738;2023-04-03T08:21:43;2.33;;;1.10;;
74293;SDS011;64044;59.904;10.738;2023-04-03T08:24:10;2.35;;;1.00;;
74293;SDS011;64044;59.904;10.738;2023-04-03T08:26:36;2.72;;;0.90;;
74293;SDS011;64044;59.904;10.738;2023-04-03T08:29:02;3.30;;;0.80;;
74293;SDS011;64044;59.904;10.738;2023-04-03T08:31:28;4.40;;;1.98;;
74293;SDS011;64044;59.904;10.738;2023-04-03T08:33:54;1.33;;;0.90;;
74293;SDS011;64044;59.904;10.738;2023-04-03T08:36:25;3.08;;;1.08;;
74293;SDS011;64044;59.904;10.738;2023-04-03T08:38:52;2.05;;;0.85;;
74293;SDS011;64044;59.904;10.738;2023-04-03T08:41:20;2.40;;;0.75;;
74293;SDS011;64044;59.904;10.738;2023-04-03T08:50:02;2.92;;;1.00;;
74293;SDS011;64044;59.904;10.738;2023-04-03T08:52:41;3.17;;;1.48;;
74293;SDS011;64044;59.904;10.738;2023-04-03T08:55:25;2.17;;;0.73;;
74293;SDS011;64044;59.904;10.738;2023-04-03T08:58:03;2.67;;;0.93;;
74293;SDS011;64044;59.904;10.738;2023-04-03T09:03:17;1.45;;;0.80;;
74293;SDS011;64044;59.904;10.738;2023-04-03T09:05:53;3.65;;;1.20;;
74293;SDS011;64044;59.904;10.738;2023-04-03T09:08:30;2.78;;;1.20;;
74293;SDS011;64044;59.904;10.738;2023-04-03T09:16:58;1.15;;;0.80;;
74293;SDS011;64044;59.904;10.738;2023-04-03T09:19:33;4.00;;;0.93;;
74293;SDS011;64044;59.904;10.738;2023-04-03T09:22:23;2.42;;;1.17;;
74293;SDS011;64044;59.904;10.738;2023-04-03T09:24:56;25.75;;;2.25;;
74293;SDS011;64044;59.904;10.738;2023-04-03T09:27:23;2.42;;;1.05;;
74293;SDS011;64044;59.904;10.738;2023-04-03T09:29:49;2.53;;;1.02;;
74293;SDS011;64044;59.904;10.738;2023-04-03T09:32:22;3.85;;;1.00;;
74293;SDS011;64044;59.904;10.738;2023-04-03T09:34:56;1.50;;;0.70;;
74293;SDS011;64044;59.904;10.738;2023-04-03T09:37:46;2.15;;;0.80;;
74293;SDS011;64044;59.904;10.738;2023-04-03T09:42:50;5.88;;;1.70;;
74293;SDS011;64044;59.904;10.738;2023-04-03T09:45:36;5.38;;;1.15;;
74293;SDS011;64044;59.904;10.738;2023-04-03T09:55:53;3.95;;;1.25;;
74293;SDS011;64044;59.904;10.738;2023-04-03T09:58:26;2.22;;;1.08;;
74293;SDS011;64044;59.904;10.738;2023-04-03T10:00:58;3.15;;;1.20;;
74293;SDS011;64044;59.904;10.738;2023-04-03T10:06:00;3.80;;;1.42;;
74293;SDS011;64044;59.904;10.738;2023-04-03T10:08:31;2.95;;;1.20;;
74293;SDS011;64044;59.904;10.738;2023-04-03T10:13:32;1.75;;;0.95;;
74293;SDS011;64044;59.904;10.738;2023-04-03T10:21:40;6.03;;;1.10;;
74293;SDS011;64044;59.904;10.738;2023-04-03T10:24:23;3.55;;;1.35;;
74293;SDS011;64044;59.904;10.738;2023-04-03T10:27:02;1.00;;;0.73;;
74293;SDS011;64044;59.904;10.738;2023-04-03T10:38:00;7.15;;;1.65;;
74293;SDS011;64044;59.904;10.738;2023-04-03T10:40:39;10.77;;;2.05;;
74293;SDS011;64044;59.904;10.738;2023-04-03T10:43:18;2.78;;;1.10;;
74293;SDS011;64044;59.904;10.738;2023-04-03T11:01:37;28.40;;;5.03;;
74293;SDS011;64044;59.904;10.738;2023-04-03T11:04:06;49.97;;;4.97;;
74293;SDS011;64044;59.904;10.738;2023-04-03T11:06:35;58.25;;;7.35;;
74293;SDS011;64044;59.904;10.738;2023-04-03T11:09:51;49.55;;;7.68;;
74293;SDS011;64044;59.904;10.738;2023-04-03T11:12:46;53.80;;;9.80;;
74293;SDS011;64044;59.904;10.738;2023-04-03T11:14:58;8.15;;;2.08;;
74293;SDS011;64044;59.904;10.738;2023-04-03T11:17:28;17.65;;;2.40;;
74293;SDS011;64044;59.904;10.738;2023-04-03T11:20:24;23.75;;;4.20;;
74293;SDS011;64044;59.904;10.738;2023-04-03T11:23:00;35.85;;;6.35;;
74293;SDS011;64044;59.904;10.738;2023-04-03T11:25:29;11.63;;;2.45;;
74293;SDS011;64044;59.904;10.738;2023-04-03T11:28:01;13.73;;;2.60;;
74293;SDS011;64044;59.904;10.738;2023-04-03T11:41:46;3.63;;;1.20;;
74293;SDS011;64044;59.904;10.738;2023-04-03T11:44:28;2.33;;;1.00;;
74293;SDS011;64044;59.904;10.738;2023-04-03T11:46:56;3.00;;;1.00;;
74293;SDS011;64044;59.904;10.738;2023-04-03T12:00:59;2.65;;;1.33;;
74293;SDS011;64044;59.904;10.738;2023-04-03T12:03:29;2.70;;;1.17;;
74293;SDS011;64044;59.904;10.738;2023-04-03T12:09:00;2.63;;;1.10;;
74293;SDS011;64044;59.904;10.738;2023-04-03T12:11:31;2.90;;;1.10;;
74293;SDS011;64044;59.904;10.738;2023-04-03T12:16:44;3.05;;;1.02;;
74293;SDS011;64044;59.904;10.738;2023-04-03T12:26:50;2.85;;;0.98;;
74293;SDS011;64044;59.904;10.738;2023-04-03T12:29:37;3.78;;;1.00;;
74293;SDS011;64044;59.904;10.738;2023-04-03T12:32:16;2.92;;;0.98;;
74293;SDS011;64044;59.904;10.738;2023-04-03T12:35:10;4.65;;;1.50;;
74293;SDS011;64044;59.904;10.738;2023-04-03T12:51:18;3.08;;;1.30;;
74293;SDS011;64044;59.904;10.738;2023-04-03T12:54:13;4.55;;;1.20;;
74293;SDS011;64044;59.904;10.738;2023-04-03T12:56:43;2.88;;;1.20;;
74293;SDS011;64044;59.904;10.738;2023-04-03T12:59:27;1.95;;;1.08;;
74293;SDS011;64044;59.904;10.738;2023-04-03T13:01:54;2.17;;;1.30;;
74293;SDS011;64044;59.904;10.738;2023-04-03T13:04:21;1.98;;;1.08;;
74293;SDS011;64044;59.904;10.738;2023-04-03T13:06:47;2.92;;;0.98;;
74293;SDS011;64044;59.904;10.738;2023-04-03T13:11:46;2.85;;;1.13;;
74293;SDS011;64044;59.904;10.738;2023-04-03T13:14:23;2.45;;;1.17;;
74293;SDS011;64044;59.904;10.738;2023-04-03T13:19:34;5.28;;;1.33;;
74293;SDS011;64044;59.904;10.738;2023-04-03T13:22:04;3.30;;;1.10;;
74293;SDS011;64044;59.904;10.738;2023-04-03T13:24:35;2.60;;;0.93;;
74293;SDS011;64044;59.904;10.738;2023-04-03T13:27:04;3.58;;;1.27;;
74293;SDS011;64044;59.904;10.738;2023-04-03T13:29:31;4.15;;;1.23;;
74293;SDS011;64044;59.904;10.738;2023-04-03T13:32:00;2.33;;;1.15;;
74293;SDS011;64044;59.904;10.738;2023-04-03T13:34:27;2.40;;;0.98;;
74293;SDS011;64044;59.904;10.738;2023-04-03T13:37:00;2.65;;;1.23;;
74293;SDS011;64044;59.904;10.738;2023-04-03T13:39:33;7.10;;;1.40;;
74293;SDS011;64044;59.904;10.738;2023-04-03T13:50:14;2.65;;;1.05;;
74293;SDS011;64044;59.904;10.738;2023-04-03T13:52:54;1.90;;;0.98;;
74293;SDS011;64044;59.904;10.738;2023-04-03T13:55:28;2.75;;;1.33;;
74293;SDS011;64044;59.904;10.738;2023-04-03T14:00:52;2.22;;;1.02;;
74293;SDS011;64044;59.904;10.738;2023-04-03T14:03:59;2.47;;;1.13;;
74293;SDS011;64044;59.904;10.738;2023-04-03T14:06:25;2.50;;;1.08;;
74293;SDS011;64044;59.904;10.738;2023-04-03T14:08:50;1.85;;;1.00;;
74293;SDS011;64044;59.904;10.738;2023-04-03T14:11:24;3.30;;;1.20;;
74293;SDS011;64044;59.904;10.738;2023-04-03T14:13:53;4.22;;;1.38;;
74293;SDS011;64044;59.904;10.738;2023-04-03T14:16:23;7.22;;;1.55;;
74293;SDS011;64044;59.904;10.738;2023-04-03T14:18:52;3.83;;;1.17;;
74293;SDS011;64044;59.904;10.738;2023-04-03T14:21:19;2.08;;;1.00;;
74293;SDS011;64044;59.904;10.738;2023-04-03T14:23:46;3.17;;;1.20;;
74293;SDS011;64044;59.904;10.738;2023-04-03T14:26:23;3.33;;;0.90;;
74293;SDS011;64044;59.904;10.738;2023-04-03T14:28:52;1.92;;;1.05;;
74293;SDS011;64044;59.904;10.738;2023-04-03T14:31:19;17.05;;;1.88;;
74293;SDS011;64044;59.904;10.738;2023-04-03T14:33:47;2.22;;;1.02;;
74293;SDS011;64044;59.904;10.738;2023-04-03T14:36:17;3.38;;;1.10;;
74293;SDS011;64044;59.904;10.738;2023-04-03T14:38:46;3.90;;;1.70;;
74293;SDS011;64044;59.904;10.738;2023-04-03T14:41:13;16.02;;;5.28;;
74293;SDS011;64044;59.904;10.738;2023-04-03T14:43:41;2.20;;;1.40;;
74293;SDS011;64044;59.904;10.738;2023-04-03T14:46:14;1.83;;;0.85;;
74293;SDS011;64044;59.904;10.738;2023-04-03T14:48:43;1.25;;;0.90;;
74293;SDS011;64044;59.904;10.738;2023-04-03T14:51:13;2.33;;;1.00;;
74293;SDS011;64044;59.904;10.738;2023-04-03T14:53:40;3.38;;;1.00;;
74293;SDS011;64044;59.904;10.738;2023-04-03T14:58:58;2.58;;;1.20;;
74293;SDS011;64044;59.904;10.738;2023-04-03T15:01:26;1.85;;;1.08;;
74293;SDS011;64044;59.904;10.738;2023-04-03T15:03:52;3.53;;;1.30;;
74293;SDS011;64044;59.904;10.738;2023-04-03T15:06:18;1.75;;;1.15;;
74293;SDS011;64044;59.904;10.738;2023-04-03T15:08:45;2.05;;;0.90;;
74293;SDS011;64044;59.904;10.738;2023-04-03T15:11:13;2.65;;;1.13;;
74293;SDS011;64044;59.904;10.738;2023-04-03T15:13:39;3.45;;;1.77;;
74293;SDS011;64044;59.904;10.738;2023-04-03T15:16:15;2.25;;;1.38;;
74293;SDS011;64044;59.904;10.738;2023-04-03T15:18:43;1.58;;;1.00;;
74293;SDS011;64044;59.904;10.738;2023-04-03T15:21:10;2.17;;;1.20;;
74293;SDS011;64044;59.904;10.738;2023-04-03T15:23:36;1.48;;;0.98;;
74293;SDS011;64044;59.904;10.738;2023-04-03T15:26:02;4.22;;;1.02;;
74293;SDS011;64044;59.904;10.738;2023-04-03T15:28:35;2.70;;;1.20;;
74293;SDS011;64044;59.904;10.738;2023-04-03T15:31:04;2.33;;;1.23;;
74293;SDS011;64044;59.904;10.738;2023-04-03T15:33:30;2.38;;;1.13;;
74293;SDS011;64044;59.904;10.738;2023-04-03T15:35:57;3.50;;;0.98;;
74293;SDS011;64044;59.904;10.738;2023-04-03T15:38:22;10.07;;;2.65;;
74293;SDS011;64044;59.904;10.738;2023-04-03T15:40:48;3.40;;;1.10;;
74293;SDS011;64044;59.904;10.738;2023-04-03T15:43:14;1.60;;;0.95;;
74293;SDS011;64044;59.904;10.738;2023-04-03T15:45:40;1.58;;;0.93;;
74293;SDS011;64044;59.904;10.738;2023-04-03T15:48:07;1.98;;;0.88;;
74293;SDS011;64044;59.904;10.738;2023-04-03T15:50:34;3.90;;;0.93;;
74293;SDS011;64044;59.904;10.738;2023-04-03T15:53:00;1.80;;;1.00;;
74293;SDS011;64044;59.904;10.738;2023-04-03T15:55:28;3.55;;;0.90;;
74293;SDS011;64044;59.904;10.738;2023-04-03T15:57:55;3.47;;;1.27;;
74293;SDS011;64044;59.904;10.738;2023-04-03T16:00:22;1.67;;;0.80;;
74293;SDS011;64044;59.904;10.738;2023-04-03T16:02:50;3.85;;;1.02;;
74293;SDS011;64044;59.904;10.738;2023-04-03T16:05:22;3.38;;;1.20;;
74293;SDS011;64044;59.904;10.738;2023-04-03T16:07:48;2.70;;;1.02;;
74293;SDS011;64044;59.904;10.738;2023-04-03T16:10:14;4.78;;;1.33;;
74293;SDS011;64044;59.904;10.738;2023-04-03T16:12:42;3.30;;;1.05;;
74293;SDS011;64044;59.904;10.738;2023-04-03T16:15:08;2.13;;;0.90;;
74293;SDS011;64044;59.904;10.738;2023-04-03T16:17:34;3.78;;;1.10;;
74293;SDS011;64044;59.904;10.738;2023-04-03T16:20:02;3.88;;;1.00;;
74293;SDS011;64044;59.904;10.738;2023-04-03T16:22:29;1.83;;;1.02;;
74293;SDS011;64044;59.904;10.738;2023-04-03T16:24:55;2.70;;;1.10;;
74293;SDS011;64044;59.904;10.738;2023-04-03T16:27:21;1.77;;;1.00;;
74293;SDS011;64044;59.904;10.738;2023-04-03T16:32:21;2.08;;;0.80;;
74293;SDS011;64044;59.904;10.738;2023-04-03T16:34:48;1.83;;;1.05;;
74293;SDS011;64044;59.904;10.738;2023-04-03T16:37:14;1.45;;;0.90;;
74293;SDS011;64044;59.904;10.738;2023-04-03T16:39:41;2.13;;;1.00;;
74293;SDS011;64044;59.904;10.738;2023-04-03T16:42:07;2.15;;;0.80;;
74293;SDS011;64044;59.904;10.738;2023-04-03T16:44:34;3.88;;;0.88;;
74293;SDS011;64044;59.904;10.738;2023-04-03T16:47:00;1.05;;;0.90;;
74293;SDS011;64044;59.904;10.738;2023-04-03T16:49:26;1.77;;;1.02;;
74293;SDS011;64044;59.904;10.738;2023-04-03T16:51:57;1.00;;;0.70;;
74293;SDS011;64044;59.904;10.738;2023-04-03T16:54:23;1.75;;;0.88;;
74293;SDS011;64044;59.904;10.738;2023-04-03T16:56:49;3.10;;;1.13;;
74293;SDS011;64044;59.904;10.738;2023-04-03T16:59:15;2.50;;;1.05;;
74293;SDS011;64044;59.904;10.738;2023-04-03T17:01:40;2.08;;;1.08;;
74293;SDS011;64044;59.904;10.738;2023-04-03T17:04:06;1.70;;;0.70;;
74293;SDS011;64044;59.904;10.738;2023-04-03T17:06:32;2.45;;;0.90;;
74293;SDS011;64044;59.904;10.738;2023-04-03T17:08:57;4.30;;;0.95;;
74293;SDS011;64044;59.904;10.738;2023-04-03T17:11:23;1.10;;;0.70;;